createdAt,value
2022-12-15T00:00:45.828Z,39
2022-12-15T00:02:15.974Z,38.9
2022-12-15T00:03:46.173Z,39.1
2022-12-15T00:05:16.242Z,37.9
2022-12-15T00:06:46.499Z,39.2
2022-12-15T00:08:16.547Z,40.2
2022-12-15T00:09:46.749Z,38.9
2022-12-15T00:11:16.875Z,39.3
2022-12-15T00:12:47.034Z,38.8
2022-12-15T00:14:17.184Z,39.1
2022-12-15T00:15:47.409Z,38.7
2022-12-15T00:17:17.514Z,39.2
2022-12-15T00:18:47.665Z,39.1
2022-12-15T00:20:17.845Z,39.1
2022-12-15T00:21:47.996Z,41.4
2022-12-15T00:23:18.149Z,39.1
2022-12-15T00:24:49.653Z,39.7
2022-12-15T00:26:18.516Z,38.8
2022-12-15T00:27:48.648Z,39.2
2022-12-15T00:29:18.799Z,39.1
2022-12-15T00:30:49.561Z,38.9
2022-12-15T00:32:19.152Z,39.3
2022-12-15T00:33:49.296Z,39.8
2022-12-15T00:35:19.491Z,39
2022-12-15T00:36:49.881Z,39.1
2022-12-15T00:38:19.803Z,39.1
2022-12-15T00:39:49.984Z,39.7
2022-12-15T00:41:20.138Z,39.2
2022-12-15T00:42:50.335Z,37.1
2022-12-15T00:44:20.985Z,39.3
2022-12-15T00:45:50.638Z,39.2
2022-12-15T00:47:20.791Z,39.2
2022-12-15T00:48:50.948Z,39.7
2022-12-15T00:50:21.134Z,39.3
2022-12-15T00:51:51.294Z,39.3
2022-12-15T00:53:21.444Z,39.2
2022-12-15T00:54:51.617Z,40.3
2022-12-15T00:56:21.773Z,39.5
2022-12-15T00:57:51.919Z,40
2022-12-15T00:59:22.102Z,39.2
2022-12-15T01:00:52.250Z,39.2
2022-12-15T01:02:22.592Z,38.6
2022-12-15T01:03:52.655Z,39.2
2022-12-15T01:05:22.761Z,38.3
2022-12-15T01:06:52.915Z,39.2
2022-12-15T01:08:23.065Z,38.8
2022-12-15T01:09:53.237Z,39
2022-12-15T01:11:23.420Z,38
2022-12-15T01:12:53.565Z,39.1
2022-12-15T01:14:23.731Z,39
2022-12-15T01:15:53.967Z,39
2022-12-15T01:17:24.053Z,39
2022-12-15T01:18:54.210Z,38.8
2022-12-15T01:20:24.374Z,36.9
2022-12-15T01:21:54.552Z,39.1
2022-12-15T01:23:24.703Z,39.9
2022-12-15T01:24:54.854Z,39.1
2022-12-15T01:26:25.025Z,39.7
2022-12-15T01:27:55.185Z,39.1
2022-12-15T01:29:25.338Z,40.4
2022-12-15T01:30:55.643Z,38.9
2022-12-15T01:32:25.676Z,39.2
2022-12-15T01:33:55.831Z,39
2022-12-15T01:35:25.978Z,38.9
2022-12-15T01:36:56.161Z,39.1
2022-12-15T01:38:26.321Z,39.1
2022-12-15T01:39:56.483Z,39.1
2022-12-15T01:41:26.672Z,38.8
2022-12-15T01:42:56.827Z,38.9
2022-12-15T01:44:26.980Z,40
2022-12-15T01:45:57.135Z,39
2022-12-15T01:47:27.350Z,39.1
2022-12-15T01:48:57.476Z,38.2
2022-12-15T01:50:27.629Z,39.1
2022-12-15T01:51:57.806Z,38.9
2022-12-15T01:53:28.222Z,39.1
2022-12-15T01:54:58.119Z,39.1
2022-12-15T01:56:31.200Z,38.9
2022-12-15T01:57:58.454Z,40.5
2022-12-15T01:59:28.606Z,39.1
2022-12-15T02:00:58.797Z,38.1
2022-12-15T02:02:29.060Z,39.3
2022-12-15T02:03:59.123Z,39.4
2022-12-15T02:05:29.249Z,39.2
2022-12-15T02:06:59.425Z,41.5
2022-12-15T02:08:29.579Z,39.1
2022-12-15T02:09:59.733Z,40.1
2022-12-15T02:11:29.916Z,39.2
2022-12-15T02:13:00.079Z,39.2
2022-12-15T02:14:30.235Z,39.2
2022-12-15T02:16:00.415Z,39.2
2022-12-15T02:17:30.570Z,39.2
2022-12-15T02:19:00.727Z,39.1
2022-12-15T02:20:30.911Z,39.1
2022-12-15T02:22:01.067Z,39.1
2022-12-15T02:23:31.609Z,39.2
2022-12-15T02:25:01.385Z,38.9
2022-12-15T02:26:31.575Z,39.1
2022-12-15T02:28:01.731Z,39.1
2022-12-15T02:29:31.887Z,39
2022-12-15T02:31:02.043Z,40.5
2022-12-15T02:32:32.223Z,39
2022-12-15T02:34:02.382Z,38.9
2022-12-15T02:35:32.788Z,38.9
2022-12-15T02:37:02.754Z,39.2
2022-12-15T02:38:32.910Z,38.7
2022-12-15T02:40:03.094Z,38.8
2022-12-15T02:41:33.248Z,39.7
2022-12-15T02:43:03.410Z,38.7
2022-12-15T02:44:33.595Z,38.9
2022-12-15T02:46:03.827Z,39
2022-12-15T02:47:33.908Z,39.6
2022-12-15T02:49:04.066Z,38.8
2022-12-15T02:50:34.249Z,38.8
2022-12-15T02:52:04.437Z,38.9
2022-12-15T02:53:34.965Z,38.8
2022-12-15T02:55:04.755Z,38.9
2022-12-15T02:56:34.906Z,37.3
2022-12-15T02:58:05.069Z,38.7
2022-12-15T02:59:35.239Z,38.7
2022-12-15T03:01:05.503Z,38.8
2022-12-15T03:02:35.731Z,39.1
2022-12-15T03:04:05.756Z,38.8
2022-12-15T03:05:35.937Z,38.7
2022-12-15T03:07:06.097Z,38.9
2022-12-15T03:08:36.292Z,38.8
2022-12-15T03:10:06.433Z,39
2022-12-15T03:11:36.583Z,38.8
2022-12-15T03:13:06.740Z,38.8
2022-12-15T03:14:36.890Z,38.3
2022-12-15T03:16:07.142Z,38.9
2022-12-15T03:17:37.228Z,40.1
2022-12-15T03:19:07.378Z,38.9
2022-12-15T03:20:37.557Z,39.8
2022-12-15T03:22:07.710Z,39.2
2022-12-15T03:23:37.864Z,39.6
2022-12-15T03:25:08.047Z,38.9
2022-12-15T03:26:38.204Z,39
2022-12-15T03:28:08.358Z,38.8
2022-12-15T03:29:38.517Z,38.5
2022-12-15T03:31:08.694Z,38.8
2022-12-15T03:32:38.855Z,38.9
2022-12-15T03:34:09.010Z,39.1
2022-12-15T03:35:39.197Z,39
2022-12-15T03:37:09.352Z,38.9
2022-12-15T03:38:39.514Z,38.7
2022-12-15T03:40:09.697Z,39.2
2022-12-15T03:41:39.853Z,39.1
2022-12-15T03:43:10.006Z,39.1
2022-12-15T03:44:40.163Z,38.7
2022-12-15T03:46:10.395Z,39
2022-12-15T03:47:40.495Z,38.9
2022-12-15T03:49:10.664Z,38.8
2022-12-15T03:50:40.847Z,38.7
2022-12-15T03:52:11.000Z,38.6
2022-12-15T03:53:41.155Z,38.8
2022-12-15T03:55:11.315Z,38.6
2022-12-15T03:56:41.528Z,38.7
2022-12-15T03:58:11.648Z,38.2
2022-12-15T03:59:41.805Z,38.9
2022-12-15T04:01:12.037Z,38.9
2022-12-15T04:02:42.232Z,38.8
2022-12-15T04:04:12.294Z,38.7
2022-12-15T04:05:42.461Z,38.7
2022-12-15T04:07:12.641Z,37.9
2022-12-15T04:08:42.802Z,38.8
2022-12-15T04:10:12.952Z,38.9
2022-12-15T04:11:43.174Z,38.6
2022-12-15T04:13:13.281Z,37.2
2022-12-15T04:14:43.431Z,38.7
2022-12-15T04:16:19.451Z,38.4
2022-12-15T04:17:43.844Z,38.6
2022-12-15T04:19:13.999Z,38.7
2022-12-15T04:20:44.153Z,38.7
2022-12-15T04:22:17.885Z,38.6
2022-12-15T04:23:44.483Z,38.7
2022-12-15T04:25:14.638Z,38.7
2022-12-15T04:26:44.824Z,37.9
2022-12-15T04:28:15.011Z,38.9
2022-12-15T04:29:45.140Z,37.9
2022-12-15T04:31:15.349Z,38.8
2022-12-15T04:32:45.468Z,39.3
2022-12-15T04:34:15.614Z,38.7
2022-12-15T04:35:45.776Z,39.7
2022-12-15T04:37:15.961Z,38.9
2022-12-15T04:38:50.221Z,38.9
2022-12-15T04:40:16.272Z,38.9
2022-12-15T04:41:46.435Z,40
2022-12-15T04:43:16.612Z,39
2022-12-15T04:44:50.031Z,39.1
2022-12-15T04:46:16.985Z,39.1
2022-12-15T04:47:47.103Z,39.2
2022-12-15T04:49:17.272Z,39.2
2022-12-15T04:50:47.423Z,38.6
2022-12-15T04:52:17.667Z,38.9
2022-12-15T04:53:47.763Z,39
2022-12-15T04:55:17.920Z,38.9
2022-12-15T04:56:50.047Z,39.1
2022-12-15T04:58:18.264Z,39
2022-12-15T04:59:48.428Z,39.1
2022-12-15T05:01:18.766Z,38.7
2022-12-15T05:02:49.739Z,39.8
2022-12-15T05:04:18.980Z,38.8
2022-12-15T05:05:49.075Z,39.2
2022-12-15T05:07:19.233Z,38.8
2022-12-15T05:08:50.167Z,38.7
2022-12-15T05:10:19.575Z,38.7
2022-12-15T05:11:49.724Z,40.2
2022-12-15T05:13:19.895Z,38.5
2022-12-15T05:14:50.053Z,38.8
2022-12-15T05:16:20.287Z,38.7
2022-12-15T05:17:50.432Z,38.8
2022-12-15T05:19:20.554Z,38.7
2022-12-15T05:20:50.715Z,38.8
2022-12-15T05:22:20.868Z,38.4
2022-12-15T05:23:51.042Z,38.5
2022-12-15T05:25:21.200Z,38
2022-12-15T05:26:53.100Z,38.9
2022-12-15T05:28:21.532Z,38.7
2022-12-15T05:29:51.685Z,38.7
2022-12-15T05:31:21.914Z,38.6
2022-12-15T05:32:51.991Z,38.5
2022-12-15T05:34:22.205Z,39.4
2022-12-15T05:35:52.331Z,38.7
2022-12-15T05:37:22.489Z,38.1
2022-12-15T05:38:52.668Z,38.6
2022-12-15T05:40:22.828Z,38.6
2022-12-15T05:41:52.983Z,38.5
2022-12-15T05:43:26.468Z,39.4
2022-12-15T05:44:53.345Z,38.6
2022-12-15T05:46:23.560Z,37.6
2022-12-15T05:47:53.651Z,38.5
2022-12-15T05:49:23.868Z,37.4
2022-12-15T05:50:54.003Z,38.7
2022-12-15T05:52:24.151Z,38.5
2022-12-15T05:53:54.326Z,38.6
2022-12-15T05:55:24.480Z,39.3
2022-12-15T05:56:54.633Z,38.6
2022-12-15T05:58:24.786Z,39.2
2022-12-15T05:59:54.978Z,38.5
2022-12-15T06:01:25.169Z,38.8
2022-12-15T06:02:55.341Z,38.6
2022-12-15T06:04:25.619Z,39.6
2022-12-15T06:05:56.681Z,39
2022-12-15T06:07:25.796Z,36.7
2022-12-15T06:08:56.000Z,38.9
2022-12-15T06:10:26.149Z,39.9
2022-12-15T06:11:56.311Z,39
2022-12-15T06:13:26.465Z,38.8
2022-12-15T06:14:56.644Z,38.9
2022-12-15T06:16:26.835Z,38.2
2022-12-15T06:17:56.963Z,39
2022-12-15T06:19:27.164Z,38.1
2022-12-15T06:20:57.442Z,39.2
2022-12-15T06:22:27.476Z,38.9
2022-12-15T06:23:57.652Z,38.9
2022-12-15T06:25:27.811Z,39.1
2022-12-15T06:26:57.965Z,39.5
2022-12-15T06:28:28.128Z,38.9
2022-12-15T06:29:58.319Z,38.8
2022-12-15T06:31:28.591Z,38.6
2022-12-15T06:32:58.645Z,39.4
2022-12-15T06:34:28.834Z,38.4
2022-12-15T06:35:58.999Z,39.5
2022-12-15T06:37:29.188Z,38.6
2022-12-15T06:38:59.449Z,38.6
2022-12-15T06:40:32.139Z,38.7
2022-12-15T06:41:59.663Z,38.8
2022-12-15T06:43:30.028Z,39
2022-12-15T06:45:00.005Z,38.7
2022-12-15T06:46:30.288Z,38.7
2022-12-15T06:48:01.594Z,38.6
2022-12-15T06:49:30.500Z,38.7
2022-12-15T06:51:00.660Z,38.9
2022-12-15T06:52:30.814Z,38.6
2022-12-15T06:54:01.037Z,38.6
2022-12-15T06:55:31.161Z,38.9
2022-12-15T06:57:01.312Z,39
2022-12-15T06:58:31.461Z,38.7
2022-12-15T07:00:01.649Z,38.9
2022-12-15T07:01:32.127Z,38.7
2022-12-15T07:03:02.151Z,38.7
2022-12-15T07:04:32.171Z,38.6
2022-12-15T07:06:02.333Z,39
2022-12-15T07:07:32.486Z,37.7
2022-12-15T07:09:02.646Z,38.7
2022-12-15T07:10:32.861Z,40.1
2022-12-15T07:12:02.990Z,38.5
2022-12-15T07:13:33.468Z,38
2022-12-15T07:15:03.331Z,38.6
2022-12-15T07:16:33.580Z,39.4
2022-12-15T07:18:03.690Z,38.8
2022-12-15T07:19:33.854Z,38.8
2022-12-15T07:21:04.014Z,39.2
2022-12-15T07:22:34.167Z,38.8
2022-12-15T07:24:04.665Z,38.8
2022-12-15T07:25:34.497Z,38.9
2022-12-15T07:27:04.770Z,38.8
2022-12-15T07:28:34.999Z,39
2022-12-15T07:30:05.026Z,39
2022-12-15T07:31:35.238Z,39
2022-12-15T07:33:05.350Z,38.1
2022-12-15T07:34:35.541Z,39.1
2022-12-15T07:36:05.672Z,39.8
2022-12-15T07:37:35.880Z,39
2022-12-15T07:39:05.986Z,39.7
2022-12-15T07:40:36.167Z,39.1
2022-12-15T07:42:06.318Z,39
2022-12-15T07:43:37.211Z,39.2
2022-12-15T07:45:06.655Z,39.2
2022-12-15T07:46:36.875Z,39.2
2022-12-15T07:48:06.971Z,40.1
2022-12-15T07:49:37.156Z,39
2022-12-15T07:51:11.308Z,39.3
2022-12-15T07:52:37.536Z,39.1
2022-12-15T07:54:07.697Z,38.9
2022-12-15T07:56:05.371Z,39.6
2022-12-15T07:57:08.024Z,39
2022-12-15T07:58:38.250Z,38.3
2022-12-15T08:00:08.371Z,38.8
2022-12-15T08:01:38.617Z,38.7
2022-12-15T08:03:08.818Z,38.5
2022-12-15T08:04:38.890Z,39.2
2022-12-15T08:06:09.026Z,38.5
2022-12-15T08:07:39.181Z,37.3
2022-12-15T08:09:09.349Z,38.6
2022-12-15T08:10:39.524Z,39
2022-12-15T08:12:09.682Z,38
2022-12-15T08:15:10.048Z,38.2
2022-12-15T08:16:40.309Z,40.3
2022-12-15T08:18:10.327Z,37.9
2022-12-15T08:19:40.492Z,39
2022-12-15T08:21:10.665Z,38.7
2022-12-15T08:22:40.824Z,38.9
2022-12-15T08:24:10.978Z,39
2022-12-15T08:25:41.164Z,39
2022-12-15T08:27:11.321Z,39.2
2022-12-15T08:28:41.475Z,39.7
2022-12-15T08:30:11.652Z,38.9
2022-12-15T08:31:41.865Z,38.6
2022-12-15T08:33:11.976Z,38.5
2022-12-15T08:34:42.132Z,38.8
2022-12-15T08:36:12.312Z,38.4
2022-12-15T08:37:42.470Z,38.3
2022-12-15T08:39:12.630Z,38.3
2022-12-15T08:40:42.812Z,38.4
2022-12-15T08:42:12.964Z,38.4
2022-12-15T08:43:47.900Z,39.1
2022-12-15T08:45:13.328Z,38.4
2022-12-15T08:46:43.481Z,39.1
2022-12-15T08:48:13.638Z,38.1
2022-12-15T08:49:43.793Z,37
2022-12-15T08:51:13.977Z,37.9
2022-12-15T08:52:55.482Z,36.9
2022-12-15T08:54:14.288Z,37.7
2022-12-15T08:55:44.454Z,37.9
2022-12-15T08:57:14.636Z,37.8
2022-12-15T08:58:44.793Z,37.7
2022-12-15T09:00:14.950Z,37.7
2022-12-15T09:01:45.366Z,38.2
2022-12-15T09:03:15.284Z,37.5
2022-12-15T09:04:45.578Z,35.4
2022-12-15T09:06:15.598Z,37.5
2022-12-15T09:07:45.772Z,38.2
2022-12-15T09:09:15.931Z,37.4
2022-12-15T09:10:46.089Z,35.3
2022-12-15T09:12:16.262Z,37.4
2022-12-15T09:13:46.428Z,37.6
2022-12-15T09:15:16.588Z,37.6
2022-12-15T09:16:50.534Z,37.6
2022-12-15T09:18:16.918Z,37.7
2022-12-15T09:19:47.073Z,37.9
2022-12-15T09:21:17.228Z,37.6
2022-12-15T09:22:47.408Z,37.6
2022-12-15T09:24:24.896Z,37.6
2022-12-15T09:25:47.728Z,37.7
2022-12-15T09:27:17.902Z,37.7
2022-12-15T09:28:50.019Z,38.1
2022-12-15T09:30:18.229Z,37.8
2022-12-15T09:32:20.429Z,37.7
2022-12-15T09:33:50.558Z,38
2022-12-15T09:35:20.715Z,37.8
2022-12-15T09:36:50.899Z,37.9
2022-12-15T09:38:21.051Z,37.9
2022-12-15T09:39:51.217Z,37.9
2022-12-15T09:41:21.371Z,37.9
2022-12-15T09:42:59.841Z,37.9
2022-12-15T09:44:21.702Z,38.2
2022-12-15T09:45:51.889Z,38.2
2022-12-15T09:47:22.093Z,38.1
2022-12-15T09:48:52.217Z,38.1
2022-12-15T09:50:22.376Z,38
2022-12-15T09:51:52.523Z,37.9
2022-12-15T09:53:53.351Z,37.9
2022-12-15T09:54:52.892Z,37.9
2022-12-15T09:56:23.008Z,38
2022-12-15T09:57:53.208Z,38
2022-12-15T09:59:23.359Z,37.5
2022-12-15T10:00:53.540Z,38
2022-12-15T10:02:23.793Z,38.2
2022-12-15T10:03:54.029Z,39
2022-12-15T10:05:29.898Z,38.1
2022-12-15T10:06:54.208Z,38.4
2022-12-15T10:08:24.382Z,38.2
2022-12-15T10:09:54.543Z,39
2022-12-15T10:11:24.698Z,38.1
2022-12-15T10:13:01.248Z,39.5
2022-12-15T10:14:25.022Z,38.3
2022-12-15T10:15:55.223Z,38.6
2022-12-15T10:17:25.336Z,38.3
2022-12-15T10:18:59.355Z,38.3
2022-12-15T10:20:25.680Z,38.3
2022-12-15T10:21:55.839Z,39.2
2022-12-15T10:23:26.056Z,38
2022-12-15T10:25:11.876Z,38.4
2022-12-15T10:26:26.337Z,38.6
2022-12-15T10:27:56.523Z,36.6
2022-12-15T10:29:26.710Z,38.7
2022-12-15T10:30:56.896Z,36.3
2022-12-15T10:32:26.990Z,38.8
2022-12-15T10:33:57.176Z,38.8
2022-12-15T10:35:27.350Z,38.7
2022-12-15T10:36:57.505Z,39
2022-12-15T10:38:27.678Z,38.7
2022-12-15T10:39:57.830Z,38.8
2022-12-15T10:41:28.014Z,38.7
2022-12-15T10:42:58.406Z,38.9
2022-12-15T10:45:58.845Z,38.7
2022-12-15T10:47:28.908Z,38.6
2022-12-15T10:48:59.064Z,38.7
2022-12-15T10:50:29.248Z,39.5
2022-12-15T10:51:59.408Z,38.8
2022-12-15T10:53:30.035Z,38.9
2022-12-15T10:54:59.716Z,38.7
2022-12-15T10:56:33.415Z,39.4
2022-12-15T10:58:00.071Z,38.8
2022-12-15T10:59:30.213Z,39.2
2022-12-15T11:01:00.366Z,38.7
2022-12-15T11:02:30.739Z,38.6
2022-12-15T11:04:00.917Z,38.6
2022-12-15T11:05:30.863Z,38.6
2022-12-15T11:07:01.074Z,38.7
2022-12-15T11:08:31.204Z,38.6
2022-12-15T11:10:01.357Z,38.5
2022-12-15T11:11:31.540Z,38.5
2022-12-15T11:13:01.706Z,38.6
2022-12-15T11:14:31.858Z,39.7
2022-12-15T11:16:02.022Z,38.6
2022-12-15T11:17:32.187Z,38.8
2022-12-15T11:19:02.346Z,39.3
2022-12-15T11:20:32.534Z,39.8
2022-12-15T11:22:02.713Z,39.4
2022-12-15T11:23:33.248Z,40
2022-12-15T11:25:03.011Z,39.7
2022-12-15T11:26:33.172Z,39.6
2022-12-15T11:28:03.344Z,39.4
2022-12-15T11:29:33.500Z,39.4
2022-12-15T11:31:03.673Z,39.3
2022-12-15T11:32:33.860Z,39.3
2022-12-15T11:34:04.013Z,39.3
2022-12-15T11:35:34.178Z,39.5
2022-12-15T11:37:04.357Z,39.2
2022-12-15T11:38:34.602Z,37.1
2022-12-15T11:40:04.718Z,39
2022-12-15T11:41:34.876Z,38.9
2022-12-15T11:43:05.061Z,39
2022-12-15T11:44:35.238Z,38.9
2022-12-15T11:46:05.390Z,38.9
2022-12-15T11:47:35.566Z,38.9
2022-12-15T11:49:05.730Z,39.6
2022-12-15T11:50:35.880Z,38.9
2022-12-15T11:52:06.035Z,40.2
2022-12-15T11:53:36.556Z,39.1
2022-12-15T11:55:06.400Z,38.9
2022-12-15T11:56:36.543Z,38.9
2022-12-15T11:58:06.723Z,38.7
2022-12-15T11:59:36.883Z,38.8
2022-12-15T12:01:07.041Z,38.9
2022-12-15T12:02:37.378Z,38.7
2022-12-15T12:04:07.373Z,39.3
2022-12-15T12:05:37.530Z,38.7
2022-12-15T12:07:07.685Z,40.2
2022-12-15T12:08:37.857Z,38.5
2022-12-15T12:10:08.017Z,38.9
2022-12-15T12:11:38.208Z,38.8
2022-12-15T12:13:08.344Z,37
2022-12-15T12:14:38.503Z,38.8
2022-12-15T12:16:08.664Z,39.2
2022-12-15T12:17:38.827Z,38.9
2022-12-15T12:19:09.052Z,38.9
2022-12-15T12:20:39.161Z,38.7
2022-12-15T12:22:09.323Z,39.7
2022-12-15T12:23:39.509Z,38.9
2022-12-15T12:25:09.657Z,38.7
2022-12-15T12:26:39.813Z,38.7
2022-12-15T12:28:10.020Z,38.7
2022-12-15T12:29:40.151Z,38.7
2022-12-15T12:31:10.302Z,39.4
2022-12-15T12:32:40.473Z,38.7
2022-12-15T12:34:10.648Z,38.7
2022-12-15T12:35:40.812Z,38.7
2022-12-15T12:37:10.983Z,38.8
2022-12-15T12:38:41.161Z,39
2022-12-15T12:40:11.322Z,39
2022-12-15T12:41:41.479Z,39.1
2022-12-15T12:44:41.886Z,39.2
2022-12-15T12:46:11.966Z,39.2
2022-12-15T12:47:42.194Z,39.3
2022-12-15T12:49:12.384Z,39.2
2022-12-15T12:50:42.547Z,39.8
2022-12-15T12:52:12.723Z,39.3
2022-12-15T12:53:42.885Z,39
2022-12-15T12:55:14.784Z,39.2
2022-12-15T12:56:43.212Z,39
2022-12-15T12:58:13.363Z,39
2022-12-15T12:59:43.553Z,38.8
2022-12-15T13:01:13.834Z,39.2
2022-12-15T13:02:43.945Z,38.9
2022-12-15T13:04:14.041Z,38.9
2022-12-15T13:05:44.196Z,38
2022-12-15T13:07:14.350Z,39.2
2022-12-15T13:08:44.525Z,39.4
2022-12-15T13:10:14.769Z,39.3
2022-12-15T13:11:44.909Z,39.5
2022-12-15T13:13:15.034Z,40.9
2022-12-15T13:14:46.644Z,39.1
2022-12-15T13:16:15.371Z,39.5
2022-12-15T13:17:45.557Z,39.1
2022-12-15T13:19:15.680Z,39.1
2022-12-15T13:20:45.860Z,39
2022-12-15T13:22:16.014Z,39.4
2022-12-15T13:23:46.166Z,39.2
2022-12-15T13:25:16.358Z,39.2
2022-12-15T13:27:18.523Z,39.3
2022-12-15T13:28:48.678Z,39.3
2022-12-15T13:30:18.865Z,39.4
2022-12-15T13:31:49.358Z,39.4
2022-12-15T13:33:19.206Z,39.6
2022-12-15T13:34:49.342Z,39.3
2022-12-15T13:36:19.512Z,40.4
2022-12-15T13:37:49.670Z,39.6
2022-12-15T13:39:19.820Z,39.4
2022-12-15T13:42:41.802Z,39.4
2022-12-15T13:43:50.327Z,39.4
2022-12-15T13:45:20.503Z,39.5
2022-12-15T13:46:50.660Z,39.4
2022-12-15T13:48:20.859Z,40.2
2022-12-15T13:49:54.568Z,39.4
2022-12-15T13:51:21.171Z,39.4
2022-12-15T13:53:17.659Z,39.7
2022-12-15T13:54:21.486Z,38.7
2022-12-15T13:55:51.675Z,39.5
2022-12-15T13:57:21.827Z,39.6
2022-12-15T13:58:51.988Z,39.5
2022-12-15T14:00:22.140Z,40.2
2022-12-15T14:01:52.430Z,39.4
2022-12-15T14:03:22.605Z,39.5
2022-12-15T14:04:52.678Z,39.2
2022-12-15T14:06:22.828Z,41.1
2022-12-15T14:07:54.847Z,39.4
2022-12-15T14:09:23.138Z,38.7
2022-12-15T14:10:53.294Z,39.4
2022-12-15T14:12:23.475Z,38.2
2022-12-15T14:13:54.527Z,39.4
2022-12-15T14:15:23.793Z,40
2022-12-15T14:16:54.050Z,39.4
2022-12-15T14:18:24.272Z,39.5
2022-12-15T14:19:54.488Z,39.5
2022-12-15T14:21:24.610Z,39.4
2022-12-15T14:22:54.773Z,39.3
2022-12-15T14:24:40.791Z,39.3
2022-12-15T14:25:55.166Z,39.4
2022-12-15T14:27:25.342Z,39.2
2022-12-15T14:28:55.506Z,39.2
2022-12-15T14:30:25.685Z,39
2022-12-15T14:31:55.895Z,39.4
2022-12-15T14:34:57.314Z,39.4
2022-12-15T14:36:26.355Z,39.2
2022-12-15T14:37:56.507Z,39.2
2022-12-15T14:39:26.659Z,39.4
2022-12-15T14:40:56.821Z,39.4
2022-12-15T14:42:26.996Z,38.7
2022-12-15T14:44:31.134Z,39.4
2022-12-15T14:45:27.308Z,38.9
2022-12-15T14:46:57.506Z,39.3
2022-12-15T14:48:43.038Z,40.5
2022-12-15T14:49:57.822Z,39.3
2022-12-15T14:51:28.009Z,40.1
2022-12-15T14:52:58.162Z,39
2022-12-15T14:54:28.316Z,39.4
2022-12-15T14:55:58.477Z,39.5
2022-12-15T14:57:28.661Z,39.5
2022-12-15T14:58:58.818Z,39.6
2022-12-15T15:00:28.976Z,39.4
2022-12-15T15:01:59.451Z,39.6
2022-12-15T15:03:08.348Z,38.6
2022-12-15T15:03:08.421Z,39.5
2022-12-15T15:03:15.030Z,39.4
2022-12-15T15:03:29.327Z,39.5
2022-12-15T15:04:59.477Z,39.6
2022-12-15T15:06:29.636Z,39.7
2022-12-15T15:07:59.847Z,39.7
2022-12-15T15:09:29.977Z,39.7
2022-12-15T15:11:00.142Z,40.4
2022-12-15T15:12:30.310Z,39.7
2022-12-15T15:14:00.470Z,39.9
2022-12-15T15:15:30.629Z,39.9
2022-12-15T15:17:00.857Z,40.3
2022-12-15T15:18:31.368Z,40.2
2022-12-15T15:20:01.118Z,40.2
2022-12-15T15:21:31.306Z,40
2022-12-15T15:23:01.513Z,40.2
2022-12-15T15:24:31.653Z,40.2
2022-12-15T15:26:01.808Z,39.2
2022-12-15T15:27:31.982Z,39.9
2022-12-15T15:29:02.150Z,39.8
2022-12-15T15:30:32.349Z,39.9
2022-12-15T15:32:02.451Z,39.9
2022-12-15T15:33:32.634Z,39.9
2022-12-15T15:35:02.785Z,40.1
2022-12-15T15:36:32.938Z,39.7
2022-12-15T15:38:03.111Z,38.1
2022-12-15T15:39:33.285Z,39.8
2022-12-15T15:41:03.439Z,39.7
2022-12-15T15:42:33.588Z,39.7
2022-12-15T15:44:03.775Z,39.7
2022-12-15T15:45:33.921Z,39.8
2022-12-15T15:47:04.075Z,39.7
2022-12-15T15:48:34.890Z,39.8
2022-12-15T15:50:04.408Z,40.1
2022-12-15T15:51:34.566Z,39.8
2022-12-15T15:53:04.730Z,39.9
2022-12-15T15:54:34.921Z,39
2022-12-15T15:56:05.107Z,40.1
2022-12-15T15:57:35.238Z,40.2
2022-12-15T15:59:05.423Z,39.9
2022-12-15T16:00:35.570Z,40.1
2022-12-15T16:02:05.887Z,40.2
2022-12-15T16:03:36.031Z,40
2022-12-15T16:05:06.077Z,40.2
2022-12-15T16:06:36.234Z,40.3
2022-12-15T16:08:06.389Z,40.2
2022-12-15T16:09:36.580Z,40.1
2022-12-15T16:11:06.740Z,40.4
2022-12-15T16:12:36.985Z,40.2
2022-12-15T16:14:07.088Z,40.4
2022-12-15T16:15:37.269Z,39.8
2022-12-15T16:17:07.412Z,38.6
2022-12-15T16:18:37.581Z,39.8
2022-12-15T16:20:07.750Z,39.5
2022-12-15T16:21:37.918Z,39.8
2022-12-15T16:23:08.079Z,38.7
2022-12-15T16:24:38.258Z,39.7
2022-12-15T16:26:08.422Z,39
2022-12-15T16:27:38.567Z,39.9
2022-12-15T16:29:08.774Z,39.5
2022-12-15T16:30:38.990Z,39.9
2022-12-15T16:32:09.072Z,39.8
2022-12-15T16:33:39.232Z,39.7
2022-12-15T16:35:09.419Z,38.9
2022-12-15T16:36:39.579Z,40
2022-12-15T16:38:09.736Z,40
2022-12-15T16:39:39.926Z,39.9
2022-12-15T16:41:10.074Z,39.9
2022-12-15T16:42:40.228Z,40.3
2022-12-15T16:44:10.407Z,39.9
2022-12-15T16:45:40.594Z,39.9
2022-12-15T16:47:10.726Z,40.1
2022-12-15T16:48:40.956Z,40
2022-12-15T16:50:11.065Z,39.3
2022-12-15T16:51:41.221Z,40
2022-12-15T16:53:11.382Z,40.2
2022-12-15T16:54:41.566Z,40.1
2022-12-15T16:56:11.706Z,40
2022-12-15T16:57:41.874Z,40
2022-12-15T16:59:34.801Z,39.2
2022-12-15T17:00:42.221Z,39.7
2022-12-15T17:02:12.518Z,39.2
2022-12-15T17:03:43.675Z,39.7
2022-12-15T17:05:12.715Z,39.8
2022-12-15T17:06:42.884Z,39.7
2022-12-15T17:08:13.031Z,39.7
2022-12-15T17:09:46.139Z,39.7
2022-12-15T17:11:16.343Z,39.6
2022-12-15T17:12:46.498Z,39.7
2022-12-15T17:14:16.653Z,39.6
2022-12-15T17:15:46.895Z,39.7
2022-12-15T17:17:17.012Z,39.4
2022-12-15T17:18:47.149Z,39.8
2022-12-15T17:20:28.908Z,39.5
2022-12-15T17:21:47.503Z,39.9
2022-12-15T17:23:17.652Z,39.7
2022-12-15T17:24:47.836Z,39.7
2022-12-15T17:26:26.118Z,39.7
2022-12-15T17:27:48.140Z,39.8
2022-12-15T17:29:18.316Z,39.7
2022-12-15T17:30:48.519Z,39.5
2022-12-15T17:32:18.657Z,39.6
2022-12-15T17:33:48.833Z,40.5
2022-12-15T17:35:18.997Z,39.5
2022-12-15T17:36:49.156Z,39.6
2022-12-15T17:38:19.310Z,39.6
2022-12-15T17:39:49.458Z,39.7
2022-12-15T17:41:42.689Z,39.6
2022-12-15T17:42:49.824Z,39.7
2022-12-15T17:44:37.084Z,39.7
2022-12-15T17:45:50.161Z,40.6
2022-12-15T17:47:20.322Z,39.8
2022-12-15T17:48:50.480Z,41.6
2022-12-15T17:50:20.693Z,39.7
2022-12-15T17:51:50.827Z,40.5
2022-12-15T17:53:20.988Z,39.8
2022-12-15T17:54:51.150Z,39.8
2022-12-15T17:56:21.322Z,39.9
2022-12-15T17:57:51.482Z,39.8
2022-12-15T17:59:21.658Z,40
2022-12-15T18:00:51.843Z,39.3
2022-12-15T18:02:22.095Z,40.2
2022-12-15T18:03:52.207Z,40.1
2022-12-15T18:05:22.522Z,40.1
2022-12-15T18:06:55.436Z,39.6
2022-12-15T18:08:22.654Z,39.9
2022-12-15T18:09:52.815Z,39.9
2022-12-15T18:11:23.017Z,39.9
2022-12-15T18:12:53.172Z,39.6
2022-12-15T18:14:23.320Z,38.9
2022-12-15T18:15:53.578Z,39.6
2022-12-15T18:17:23.679Z,40
2022-12-15T18:18:53.817Z,39.5
2022-12-15T18:20:23.978Z,40.5
2022-12-15T18:21:54.156Z,39.5
2022-12-15T18:23:24.340Z,39.5
2022-12-15T18:24:54.486Z,39.5
2022-12-15T18:26:24.663Z,39.5
2022-12-15T18:27:54.816Z,39.4
2022-12-15T18:29:24.972Z,37.8
2022-12-15T18:30:55.126Z,39.3
2022-12-15T18:32:25.317Z,39.5
2022-12-15T18:33:58.327Z,39.5
2022-12-15T18:35:25.620Z,40.4
2022-12-15T18:36:55.825Z,39.6
2022-12-15T18:38:25.986Z,39.6
2022-12-15T18:40:00.932Z,39.5
2022-12-15T18:41:26.328Z,40.2
2022-12-15T18:42:56.484Z,39.6
2022-12-15T18:44:26.635Z,39.4
2022-12-15T18:45:56.789Z,39.3
2022-12-15T18:47:27.036Z,38.9
2022-12-15T18:48:57.124Z,39.4
2022-12-15T18:50:27.286Z,38.3
2022-12-15T18:51:57.467Z,39.3
2022-12-15T18:53:27.619Z,40.3
2022-12-15T18:54:57.778Z,39.5
2022-12-15T18:56:27.986Z,39.9
2022-12-15T18:57:58.283Z,39.8
2022-12-15T18:59:28.562Z,39
2022-12-15T19:00:58.795Z,39.7
2022-12-15T19:02:29.047Z,39.2
2022-12-15T19:03:59.030Z,39.9
2022-12-15T19:05:29.384Z,38.6
2022-12-15T19:06:59.374Z,38.6
2022-12-15T19:08:29.516Z,38.6
2022-12-15T19:09:59.677Z,38.2
2022-12-15T19:11:29.865Z,37.3
2022-12-15T19:13:00.008Z,38.8
2022-12-15T19:14:30.157Z,40
2022-12-15T19:16:00.349Z,42
2022-12-15T19:17:30.500Z,38.8
2022-12-15T19:19:00.654Z,38.9
2022-12-15T19:20:30.818Z,38.7
2022-12-15T19:22:00.967Z,39
2022-12-15T19:23:31.513Z,39.9
2022-12-15T19:25:01.301Z,40
2022-12-15T19:26:31.452Z,40.3
2022-12-15T19:28:01.653Z,40
2022-12-15T19:29:31.782Z,41.4
2022-12-15T19:31:01.945Z,40.2
2022-12-15T19:32:32.098Z,40.7
2022-12-15T19:34:02.290Z,39.7
2022-12-15T19:35:32.450Z,40.8
2022-12-15T19:37:02.613Z,40
2022-12-15T19:38:32.800Z,41
2022-12-15T19:40:02.948Z,40.5
2022-12-15T19:41:33.105Z,41
2022-12-15T19:43:03.298Z,40.5
2022-12-15T19:44:33.474Z,39.4
2022-12-15T19:46:03.675Z,41.4
2022-12-15T19:47:33.764Z,41.4
2022-12-15T19:49:03.960Z,41.4
2022-12-15T19:50:34.100Z,38
2022-12-15T19:52:04.257Z,41.6
2022-12-15T19:53:34.753Z,41.4
2022-12-15T19:55:04.597Z,41.5
2022-12-15T19:56:34.750Z,41.5
2022-12-15T19:58:04.909Z,41.5
2022-12-15T19:59:35.089Z,41.4
2022-12-15T20:01:05.351Z,42.3
2022-12-15T20:02:35.630Z,41.5
2022-12-15T20:04:05.629Z,41.6
2022-12-15T20:05:35.785Z,41.7
2022-12-15T20:07:05.941Z,41.6
2022-12-15T20:08:36.126Z,41.7
2022-12-15T20:10:06.278Z,45
2022-12-15T20:11:36.438Z,41.7
2022-12-15T20:13:06.593Z,42